createdAt,value
2019-03-23T00:00:17.849Z,61.07
2019-03-23T00:02:46.514Z,60.90
2019-03-23T00:05:14.391Z,60.64
2019-03-23T00:07:42.054Z,60.47
2019-03-23T00:10:10.165Z,60.55
2019-03-23T00:12:37.754Z,60.44
2019-03-23T00:15:06.296Z,60.38
2019-03-23T00:17:33.881Z,60.25
2019-03-23T00:20:01.795Z,60.02
2019-03-23T00:22:29.572Z,59.78
2019-03-23T00:24:57.124Z,59.66
2019-03-23T00:27:25.349Z,59.75
2019-03-23T00:29:53.011Z,60.19
2019-03-23T00:32:20.615Z,60.18
2019-03-23T00:34:48.211Z,59.99
2019-03-23T00:37:16.147Z,60.90
2019-03-23T00:39:43.724Z,61.80
2019-03-23T00:42:11.568Z,62.03
2019-03-23T00:44:39.270Z,61.81
2019-03-23T00:47:06.968Z,61.67
2019-03-23T00:49:34.632Z,61.22
2019-03-23T00:52:02.258Z,61.30
2019-03-23T00:54:29.921Z,61.18
2019-03-23T00:56:58.014Z,60.98
2019-03-23T00:59:25.567Z,60.99
2019-03-23T01:01:53.190Z,61.27
2019-03-23T01:04:20.972Z,61.24
2019-03-23T01:06:52.425Z,61.57
2019-03-23T01:09:18.046Z,61.66
2019-03-23T01:11:45.987Z,61.25
2019-03-23T01:14:13.744Z,61.14
2019-03-23T01:16:43.966Z,62.29
2019-03-23T01:19:11.642Z,62.13
2019-03-23T01:21:39.613Z,62.22
2019-03-23T01:24:07.190Z,62.64
2019-03-23T01:26:36.933Z,62.63
2019-03-23T01:29:04.728Z,62.84
2019-03-23T01:31:32.290Z,62.93
2019-03-23T01:34:00.053Z,62.93
2019-03-23T01:36:27.894Z,63.34
2019-03-23T01:38:56.039Z,63.69
2019-03-23T01:41:24.090Z,63.61
2019-03-23T01:43:51.714Z,64.07
2019-03-23T01:46:19.392Z,64.19
2019-03-23T01:48:47.537Z,64.10
2019-03-23T01:51:15.239Z,63.81
2019-03-23T01:53:42.906Z,63.66
2019-03-23T01:56:10.627Z,63.42
2019-03-23T01:58:38.697Z,63.22
2019-03-23T02:01:06.359Z,62.82
2019-03-23T02:03:35.213Z,62.73
2019-03-23T02:06:02.847Z,62.88
2019-03-23T02:08:30.390Z,63.03
2019-03-23T02:10:58.059Z,63.13
2019-03-23T02:13:25.619Z,62.99
2019-03-23T02:15:53.279Z,63.05
2019-03-23T02:18:23.572Z,63.11
2019-03-23T02:20:52.614Z,62.98
2019-03-23T02:23:20.387Z,63.10
2019-03-23T02:25:48.095Z,63.78
2019-03-23T02:28:15.902Z,64.00
2019-03-23T02:30:43.845Z,64.23
2019-03-23T02:33:11.897Z,64.35
2019-03-23T02:35:39.542Z,64.27
2019-03-23T02:38:08.612Z,64.20
2019-03-23T02:40:36.275Z,64.42
2019-03-23T02:43:03.868Z,65.33
2019-03-23T02:45:31.524Z,65.63
2019-03-23T02:47:59.617Z,65.24
2019-03-23T02:50:27.421Z,65.75
2019-03-23T02:52:54.986Z,66.14
2019-03-23T02:55:23.047Z,66.51
2019-03-23T02:57:50.731Z,67.17
2019-03-23T03:00:18.297Z,68.32
2019-03-23T03:02:46.589Z,68.83
2019-03-23T03:05:14.950Z,68.16
2019-03-23T03:07:43.820Z,67.14
2019-03-23T03:10:16.925Z,66.56
2019-03-23T03:12:44.552Z,66.08
2019-03-23T03:15:12.481Z,65.42
2019-03-23T03:17:40.395Z,65.31
2019-03-23T03:20:10.207Z,65.44
2019-03-23T03:22:37.870Z,65.80
2019-03-23T03:25:06.899Z,65.37
2019-03-23T03:27:36.242Z,65.13
2019-03-23T03:30:04.579Z,65.26
2019-03-23T03:32:32.449Z,65.77
2019-03-23T03:35:00.778Z,66.03
2019-03-23T03:37:28.330Z,66.13
2019-03-23T03:39:55.975Z,66.94
2019-03-23T03:42:24.158Z,66.56
2019-03-23T03:44:51.943Z,67.74
2019-03-23T03:47:19.629Z,68.20
2019-03-23T03:49:47.762Z,68.42
2019-03-23T03:52:17.260Z,68.86
2019-03-23T03:54:44.877Z,69.28
2019-03-23T03:57:12.995Z,69.71
2019-03-23T03:59:40.630Z,69.29
2019-03-23T04:02:08.269Z,68.73
2019-03-23T04:04:35.911Z,67.67
2019-03-23T04:07:03.790Z,66.77
2019-03-23T04:09:32.067Z,66.77
2019-03-23T04:11:59.827Z,67.16
2019-03-23T04:14:27.551Z,67.41
2019-03-23T04:16:55.836Z,66.88
2019-03-23T04:19:23.532Z,66.25
2019-03-23T04:21:51.146Z,66.49
2019-03-23T04:24:19.288Z,66.65
2019-03-23T04:26:46.912Z,67.12
2019-03-23T04:29:14.520Z,67.85
2019-03-23T04:31:42.674Z,68.87
2019-03-23T04:34:10.240Z,68.13
2019-03-23T04:36:37.982Z,67.74
2019-03-23T04:39:05.950Z,67.45
2019-03-23T04:41:33.512Z,66.73
2019-03-23T04:44:02.262Z,66.56
2019-03-23T04:46:30.577Z,66.51
2019-03-23T04:48:58.213Z,66.36
2019-03-23T04:51:25.712Z,66.05
2019-03-23T04:53:53.323Z,66.36
2019-03-23T04:56:21.004Z,66.31
2019-03-23T04:58:48.759Z,66.22
2019-03-23T05:01:16.926Z,66.27
2019-03-23T05:03:44.602Z,66.37
2019-03-23T05:06:12.243Z,66.60
2019-03-23T05:08:40.033Z,66.74
2019-03-23T05:11:07.576Z,66.90
2019-03-23T05:13:35.132Z,66.74
2019-03-23T05:16:03.432Z,67.78
2019-03-23T05:18:31.026Z,69.65
2019-03-23T05:20:58.723Z,69.60
2019-03-23T05:23:27.077Z,68.49
2019-03-23T05:25:54.623Z,67.93
2019-03-23T05:28:22.206Z,67.46
2019-03-23T05:30:50.049Z,66.52
2019-03-23T05:33:17.680Z,65.73
2019-03-23T05:35:45.307Z,66.00
2019-03-23T05:38:12.922Z,66.28
2019-03-23T05:40:40.504Z,65.94
2019-03-23T05:43:08.520Z,65.42
2019-03-23T05:45:36.319Z,64.56
2019-03-23T05:48:04.022Z,64.16
2019-03-23T05:50:32.136Z,63.61
2019-03-23T05:52:59.787Z,62.93
2019-03-23T05:55:27.420Z,62.14
2019-03-23T05:57:56.198Z,61.50
2019-03-23T06:00:23.835Z,60.38
2019-03-23T06:02:51.504Z,63.55
2019-03-23T06:05:20.210Z,64.38
2019-03-23T06:07:47.816Z,62.54
2019-03-23T06:10:15.847Z,61.92
2019-03-23T06:12:44.616Z,60.85
2019-03-23T06:15:12.254Z,60.11
2019-03-23T06:17:39.939Z,58.62
2019-03-23T06:20:08.012Z,56.62
2019-03-23T06:22:35.826Z,54.51
2019-03-23T06:25:04.485Z,53.74
2019-03-23T06:27:32.057Z,53.80
2019-03-23T06:29:59.696Z,53.93
2019-03-23T06:32:27.827Z,52.98
2019-03-23T06:34:55.681Z,52.20
2019-03-23T06:37:23.445Z,51.11
2019-03-23T06:39:51.023Z,50.30
2019-03-23T06:42:19.427Z,49.17
2019-03-23T06:44:47.494Z,48.11
2019-03-23T06:47:15.050Z,47.31
2019-03-23T06:49:43.203Z,46.42
2019-03-23T06:52:10.826Z,45.62
2019-03-23T06:54:38.523Z,45.15
2019-03-23T06:57:06.169Z,44.88
2019-03-23T06:59:35.075Z,44.63
2019-03-23T07:02:02.819Z,44.43
2019-03-23T07:04:32.288Z,43.82
2019-03-23T07:06:59.962Z,43.99
2019-03-23T07:09:27.531Z,43.89
2019-03-23T07:11:55.241Z,44.33
2019-03-23T07:14:22.938Z,44.53
2019-03-23T07:16:51.570Z,44.02
2019-03-23T07:19:21.019Z,44.04
2019-03-23T07:21:48.685Z,44.57
2019-03-23T07:24:17.529Z,45.36
2019-03-23T07:26:45.349Z,44.70
2019-03-23T07:29:13.336Z,44.66
2019-03-23T07:31:41.755Z,43.73
2019-03-23T07:34:09.383Z,43.65
2019-03-23T07:36:37.712Z,45.67
2019-03-23T07:39:06.586Z,43.45
2019-03-23T07:41:34.165Z,42.62
2019-03-23T07:44:03.079Z,44.59
2019-03-23T07:46:32.637Z,43.27
2019-03-23T07:49:00.315Z,42.95
2019-03-23T07:51:28.058Z,41.76
2019-03-23T07:53:56.315Z,40.25
2019-03-23T07:56:24.109Z,39.78
2019-03-23T07:58:51.884Z,38.96
2019-03-23T08:01:19.425Z,39.04
2019-03-23T08:03:47.009Z,39.81
2019-03-23T08:06:14.638Z,39.27
2019-03-23T08:08:42.617Z,38.44
2019-03-23T08:11:10.374Z,41.27
2019-03-23T08:13:38.024Z,43.68
2019-03-23T08:16:05.600Z,42.81
2019-03-23T08:18:33.197Z,43.16
2019-03-23T08:21:00.914Z,43.67
2019-03-23T08:23:29.220Z,41.48
2019-03-23T08:25:56.894Z,40.26
2019-03-23T08:28:24.573Z,39.16
2019-03-23T08:30:52.160Z,39.88
2019-03-23T08:33:19.713Z,40.68
2019-03-23T08:35:47.300Z,40.73
2019-03-23T08:38:14.862Z,39.54
2019-03-23T08:40:42.680Z,37.62
2019-03-23T08:43:10.289Z,39.43
2019-03-23T08:45:38.077Z,38.33
2019-03-23T08:48:05.752Z,38.20
2019-03-23T08:50:33.944Z,36.02
2019-03-23T08:53:01.630Z,34.74
2019-03-23T08:55:29.516Z,34.79
2019-03-23T08:57:59.063Z,43.43
2019-03-23T09:00:26.667Z,45.13
2019-03-23T09:02:54.311Z,46.98
2019-03-23T09:05:22.098Z,47.36
2019-03-23T09:07:52.433Z,42.55
2019-03-23T09:10:19.617Z,43.68
2019-03-23T09:12:47.660Z,44.07
2019-03-23T09:15:15.286Z,41.16
2019-03-23T09:17:44.384Z,40.76
2019-03-23T09:20:12.402Z,41.36
2019-03-23T09:22:40.174Z,44.24
2019-03-23T09:25:08.427Z,46.30
2019-03-23T09:27:36.066Z,45.43
2019-03-23T09:30:09.079Z,45.64
2019-03-23T09:32:36.869Z,43.75
2019-03-23T09:35:04.882Z,43.62
2019-03-23T09:37:32.505Z,40.00
2019-03-23T09:40:10.049Z,39.37
2019-03-23T09:42:30.908Z,36.74
2019-03-23T09:44:59.030Z,35.65
2019-03-23T09:47:39.024Z,35.26
2019-03-23T09:50:07.320Z,34.10
2019-03-23T09:52:35.889Z,34.05
2019-03-23T09:55:05.740Z,31.85
2019-03-23T09:57:33.470Z,31.73
2019-03-23T10:00:01.485Z,29.96
2019-03-23T10:02:29.554Z,26.97
2019-03-23T10:04:57.149Z,32.11
2019-03-23T10:07:24.885Z,35.29
2019-03-23T10:09:52.758Z,32.68
2019-03-23T10:12:20.586Z,29.28
2019-03-23T10:14:48.331Z,29.18
2019-03-23T10:17:16.096Z,29.94
2019-03-23T10:19:46.642Z,27.36
2019-03-23T10:22:14.260Z,24.31
2019-03-23T10:24:41.975Z,22.94
2019-03-23T10:27:10.110Z,21.67
2019-03-23T10:29:37.934Z,19.75
2019-03-23T10:32:05.697Z,19.38
2019-03-23T10:34:34.387Z,19.33
2019-03-23T10:37:03.228Z,18.25
2019-03-23T10:39:32.033Z,18.10
2019-03-23T10:41:59.586Z,18.44
2019-03-23T10:44:27.326Z,19.13
2019-03-23T10:46:55.622Z,17.96
2019-03-23T10:49:24.071Z,19.88
2019-03-23T10:51:51.869Z,21.00
2019-03-23T10:54:20.003Z,20.13
2019-03-23T10:56:47.711Z,23.44
2019-03-23T10:59:17.612Z,21.17
2019-03-23T11:01:45.378Z,19.09
2019-03-23T11:04:12.963Z,17.88
2019-03-23T11:06:40.680Z,17.85
2019-03-23T11:09:08.610Z,17.11
2019-03-23T11:11:36.346Z,17.17
2019-03-23T11:14:03.987Z,19.66
2019-03-23T11:16:31.681Z,20.23
2019-03-23T11:18:59.359Z,20.48
2019-03-23T11:21:26.914Z,23.72
2019-03-23T11:23:54.699Z,23.24
2019-03-23T11:26:22.745Z,21.86
2019-03-23T11:28:50.336Z,22.92
2019-03-23T11:31:17.976Z,24.93
2019-03-23T11:33:45.917Z,21.65
2019-03-23T11:36:13.878Z,18.70
2019-03-23T11:38:41.530Z,16.76
2019-03-23T11:41:09.451Z,17.08
2019-03-23T11:43:38.074Z,15.73
2019-03-23T11:46:06.509Z,16.19
2019-03-23T11:48:34.456Z,15.42
2019-03-23T11:51:02.035Z,14.83
2019-03-23T11:53:30.123Z,14.17
2019-03-23T11:55:58.727Z,15.02
2019-03-23T11:58:26.615Z,13.86
2019-03-23T12:00:54.272Z,12.90
2019-03-23T12:03:21.949Z,14.81
2019-03-23T12:05:49.582Z,15.46
2019-03-23T12:08:17.340Z,15.71
2019-03-23T12:10:44.919Z,19.93
2019-03-23T12:13:12.550Z,20.22
2019-03-23T12:15:42.744Z,17.41
2019-03-23T12:18:10.467Z,17.57
2019-03-23T12:20:38.175Z,20.12
2019-03-23T12:23:08.121Z,18.41
2019-03-23T12:25:35.799Z,16.50
2019-03-23T12:28:03.432Z,14.63
2019-03-23T12:30:31.075Z,14.48
2019-03-23T12:32:58.907Z,13.17
2019-03-23T12:35:26.592Z,13.98
2019-03-23T12:37:54.376Z,19.69
2019-03-23T12:40:22.211Z,17.18
2019-03-23T12:42:59.153Z,17.22
2019-03-23T12:45:42.673Z,15.42
2019-03-23T12:48:20.518Z,14.38
2019-03-23T12:50:48.191Z,13.59
2019-03-23T12:53:16.206Z,13.31
2019-03-23T12:55:44.424Z,13.65
2019-03-23T12:58:12.005Z,13.12
2019-03-23T13:00:39.671Z,13.25
2019-03-23T14:18:28.338Z,25.43
2019-03-23T14:20:56.598Z,23.73
2019-03-23T14:23:26.627Z,23.30
2019-03-23T14:25:54.284Z,26.98
2019-03-23T14:28:22.342Z,27.82
2019-03-23T14:30:51.090Z,28.60
2019-03-23T14:33:21.051Z,26.02
2019-03-23T14:35:48.829Z,29.67
2019-03-23T14:38:17.341Z,28.45
2019-03-23T14:40:46.062Z,30.32
2019-03-23T14:43:13.730Z,30.20
2019-03-23T14:45:51.046Z,32.17
2019-03-23T14:48:19.657Z,32.53
2019-03-23T14:50:47.401Z,31.56
2019-03-23T14:53:15.169Z,30.83
2019-03-23T14:55:47.246Z,31.90
2019-03-23T14:58:16.206Z,32.56
2019-03-23T15:00:45.187Z,34.31
2019-03-23T15:03:13.709Z,35.55
2019-03-23T15:05:47.366Z,37.23
2019-03-23T15:08:15.439Z,36.30
2019-03-23T15:10:43.328Z,34.62
2019-03-23T15:13:12.975Z,36.44
2019-03-23T15:15:49.711Z,35.54
2019-03-23T15:18:19.988Z,37.58
2019-03-23T15:20:47.691Z,38.83
2019-03-23T15:24:03.967Z,39.20
2019-03-23T15:26:34.485Z,38.78
2019-03-23T15:29:03.442Z,40.51
2019-03-23T15:31:31.042Z,40.24
2019-03-23T15:33:59.057Z,40.25
2019-03-23T15:36:27.946Z,40.59
2019-03-23T15:38:55.566Z,40.06
2019-03-23T15:41:24.745Z,42.14
2019-03-23T15:43:53.447Z,42.53
2019-03-23T15:46:21.402Z,41.98
2019-03-23T15:48:50.176Z,41.95
2019-03-23T15:51:18.341Z,41.64
2019-03-23T15:53:45.952Z,41.15
2019-03-23T15:56:13.560Z,40.12
2019-03-23T15:58:41.550Z,41.63
2019-03-23T16:01:09.227Z,40.86
2019-03-23T16:03:38.947Z,43.23
2019-03-23T16:06:06.829Z,41.78
2019-03-23T16:08:34.423Z,41.23
2019-03-23T16:11:02.005Z,41.77
2019-03-23T16:13:29.914Z,42.46
2019-03-23T16:15:58.022Z,41.92
2019-03-23T16:18:25.715Z,43.13
2019-03-23T16:20:53.351Z,43.61
2019-03-23T16:23:21.462Z,43.85
2019-03-23T16:25:49.268Z,44.21
2019-03-23T16:28:17.291Z,44.00
2019-03-23T16:30:44.909Z,44.62
2019-03-23T16:33:12.729Z,44.42
2019-03-23T16:35:40.526Z,44.14
2019-03-23T16:38:08.473Z,45.63
2019-03-23T16:40:36.183Z,46.89
2019-03-23T16:43:06.194Z,46.39
2019-03-23T16:45:35.345Z,45.47
2019-03-23T16:48:04.581Z,45.95
2019-03-23T16:50:33.060Z,46.73
2019-03-23T16:53:02.157Z,46.71
2019-03-23T16:55:35.094Z,47.19
2019-03-23T16:58:15.698Z,48.18
2019-03-23T17:00:39.175Z,47.94
2019-03-23T17:03:07.463Z,48.46
2019-03-23T17:05:36.604Z,49.05
2019-03-23T17:08:05.633Z,49.58
2019-03-23T17:10:33.967Z,50.23
2019-03-23T17:13:01.580Z,50.34
2019-03-23T17:15:29.746Z,50.99
2019-03-23T17:17:59.334Z,51.33
2019-03-23T17:20:29.718Z,51.74
2019-03-23T17:22:57.405Z,52.28
2019-03-23T17:25:24.985Z,52.74
2019-03-23T17:27:53.006Z,53.10
2019-03-23T17:30:23.503Z,53.35
2019-03-23T17:32:51.078Z,53.76
2019-03-23T17:35:19.766Z,54.17
2019-03-23T17:37:47.433Z,54.64
2019-03-23T17:40:15.094Z,55.01
2019-03-23T17:42:43.315Z,55.25
2019-03-23T17:45:11.261Z,55.32
2019-03-23T17:47:38.857Z,55.68
2019-03-23T17:50:07.150Z,55.69
2019-03-23T17:52:35.115Z,56.34
2019-03-23T17:55:03.419Z,56.76
2019-03-23T17:57:32.316Z,57.28
2019-03-23T18:00:34.895Z,57.53
2019-03-23T18:03:57.412Z,57.58
2019-03-23T18:10:18.673Z,58.39
2019-03-23T18:12:46.360Z,58.64
2019-03-23T18:15:15.085Z,58.87
2019-03-23T18:17:43.024Z,58.97
2019-03-23T18:20:10.932Z,59.10
2019-03-23T18:22:38.752Z,59.36
2019-03-23T18:25:07.386Z,59.78
2019-03-23T18:27:35.514Z,60.21
2019-03-23T18:30:04.239Z,60.35
2019-03-23T18:32:32.390Z,60.63
2019-03-23T18:35:01.174Z,60.79
2019-03-23T18:37:31.757Z,60.98
2019-03-23T18:40:00.058Z,61.13
2019-03-23T18:42:28.037Z,61.23
2019-03-23T18:44:55.834Z,61.10
2019-03-23T18:47:23.494Z,61.39
2019-03-23T18:49:52.211Z,61.50
2019-03-23T18:52:20.803Z,61.38
2019-03-23T18:54:48.908Z,61.09
2019-03-23T18:57:16.672Z,60.45
2019-03-23T18:59:44.420Z,59.05
2019-03-23T19:02:12.042Z,58.12
2019-03-23T19:04:39.865Z,57.23
2019-03-23T19:07:07.443Z,57.23
2019-03-23T19:09:35.486Z,56.88
2019-03-23T19:12:03.264Z,56.98
2019-03-23T19:14:31.023Z,56.82
2019-03-23T19:16:58.639Z,57.15
2019-03-23T19:19:26.275Z,56.72
2019-03-23T19:21:53.975Z,57.01
2019-03-23T19:24:21.966Z,56.86
2019-03-23T19:26:49.610Z,57.26
2019-03-23T19:29:17.366Z,57.18
2019-03-23T19:31:44.959Z,57.44
2019-03-23T19:34:12.985Z,57.38
2019-03-23T19:36:41.245Z,57.31
2019-03-23T19:39:09.267Z,57.37
2019-03-23T19:41:37.004Z,57.23
2019-03-23T19:44:04.760Z,57.19
2019-03-23T19:46:32.935Z,57.46
2019-03-23T19:49:01.159Z,57.62
2019-03-23T19:51:28.857Z,57.54
2019-03-23T19:53:56.463Z,57.40
2019-03-23T19:56:24.881Z,57.41
2019-03-23T19:58:53.774Z,57.63
2019-03-23T20:01:21.440Z,57.71
2019-03-23T20:03:50.057Z,57.83
2019-03-23T20:06:17.895Z,57.91
2019-03-23T20:08:45.656Z,58.33
2019-03-23T20:11:13.334Z,58.00
2019-03-23T20:13:42.153Z,58.39
2019-03-23T20:16:11.526Z,58.73
2019-03-23T20:18:39.303Z,58.63
2019-03-23T20:21:07.163Z,58.59
2019-03-23T20:23:34.911Z,58.83
2019-03-23T20:26:02.754Z,59.26
2019-03-23T20:28:30.407Z,59.42
2019-03-23T20:30:58.770Z,59.32
2019-03-23T20:33:26.453Z,59.48
2019-03-23T20:35:54.157Z,59.72
2019-03-23T20:38:21.774Z,59.75
2019-03-23T20:40:49.552Z,59.90
2019-03-23T20:43:17.280Z,60.07
2019-03-23T20:45:45.963Z,60.22
2019-03-23T20:48:13.622Z,60.50
2019-03-23T20:50:41.632Z,60.72
2019-03-23T20:53:09.615Z,60.51
2019-03-23T20:55:37.541Z,60.63
2019-03-23T20:58:08.375Z,60.89
2019-03-23T21:00:36.837Z,61.17
2019-03-23T21:03:04.549Z,60.99
2019-03-23T21:05:35.004Z,60.93
2019-03-23T21:08:03.258Z,61.57
2019-03-23T21:10:30.874Z,61.56
2019-03-23T21:12:58.516Z,61.84
2019-03-23T21:15:26.439Z,61.56
2019-03-23T21:17:55.633Z,61.55
2019-03-23T21:20:23.247Z,61.83
2019-03-23T21:22:51.348Z,62.01
2019-03-23T21:25:18.995Z,61.71
2019-03-23T21:27:46.692Z,62.28
2019-03-23T21:30:16.432Z,62.92
2019-03-23T21:32:44.329Z,62.59
2019-03-23T21:35:12.000Z,62.53
2019-03-23T21:37:40.301Z,62.30
2019-03-23T21:40:08.256Z,62.70
2019-03-23T21:42:35.865Z,63.06
2019-03-23T21:45:04.408Z,63.58
2019-03-23T21:47:32.203Z,63.36
2019-03-23T21:50:00.368Z,63.19
2019-03-23T21:52:28.434Z,63.14
2019-03-23T21:54:56.405Z,63.39
2019-03-23T21:57:24.377Z,63.63
2019-03-23T21:59:51.967Z,63.70
2019-03-23T22:02:19.773Z,63.56
2019-03-23T22:04:48.592Z,64.39
2019-03-23T22:07:18.428Z,64.41
2019-03-23T22:09:46.103Z,64.31
2019-03-23T22:12:13.695Z,65.15
2019-03-23T22:14:42.158Z,65.37
2019-03-23T22:17:09.957Z,65.41
2019-03-23T22:19:37.588Z,66.12
2019-03-23T22:22:05.720Z,66.23
2019-03-23T22:24:33.339Z,66.14
2019-03-23T22:27:01.139Z,66.69
2019-03-23T22:29:29.256Z,67.32
2019-03-23T22:31:58.013Z,67.33
2019-03-23T22:34:25.679Z,67.22
2019-03-23T22:36:55.617Z,67.00
2019-03-23T22:39:23.389Z,67.01
2019-03-23T22:41:51.139Z,66.66
2019-03-23T22:44:18.726Z,66.39
2019-03-23T22:46:46.442Z,66.12
2019-03-23T22:49:14.255Z,66.53
2019-03-23T22:51:41.879Z,66.65
2019-03-23T22:54:09.572Z,67.09
2019-03-23T22:56:37.200Z,67.29
2019-03-23T22:59:06.039Z,67.21
2019-03-23T23:01:33.758Z,67.17
2019-03-23T23:04:01.556Z,67.14
2019-03-23T23:06:29.915Z,67.58
2019-03-23T23:08:57.642Z,67.69
2019-03-23T23:11:25.386Z,67.93
2019-03-23T23:13:54.734Z,68.32
2019-03-23T23:16:22.531Z,68.42
2019-03-23T23:18:50.143Z,68.34
2019-03-23T23:21:18.147Z,68.46
2019-03-23T23:23:46.408Z,68.90
2019-03-23T23:26:15.760Z,69.22
2019-03-23T23:28:43.736Z,69.55
2019-03-23T23:31:13.075Z,69.68
2019-03-23T23:33:40.873Z,69.55
2019-03-23T23:36:21.929Z,69.41
2019-03-23T23:38:49.655Z,69.21
2019-03-23T23:41:17.704Z,69.38
2019-03-23T23:43:45.468Z,69.65
2019-03-23T23:46:13.051Z,69.75
2019-03-23T23:48:50.832Z,69.69
2019-03-23T23:51:10.510Z,69.48
2019-03-23T23:53:38.330Z,69.42
2019-03-23T23:56:06.177Z,69.64
2019-03-23T23:58:33.962Z,70.03
